• pl
  • eng

Awiacja
Kliknij na pogrubioną czerwoną nazwę, aby odkodować depeszę. 12:01 30.04.2017
  • WIND
  • SIGNIFICANT EURO
  • SIGNIFICANT
  • SIGMET
  • AIRMET
  • TAF FC
  • TAF FT
  • METAR GG30
  • METAR GG00


METAR EPBY 301000Z 04012KT 9999 BKN029 08/01 Q1024 =

METAR EPGD 301000Z 06009KT 030V100 9999 SCT048 08/M04 Q1024 =

METAR EPKK 301000Z 06004KT 9999 FEW020 BKN046 07/03 Q1021 =

METAR EPKT 301000Z 05008KT 010V100 9999 SCT046 10/M01 Q1021 =

METAR EPLB 301000Z 01004KT 260V070 9999 SCT029 11/05 Q1021 =

METAR EPLL 301000Z 03008KT 9999 SCT021 BKN022 06/02 Q1022 =

METAR EPMO 301000Z 02009KT 9999 BKN018 07/03 Q1023 =

METAR EPPO 301000Z 07007KT 030V120 9999 BKN027 07/M00 Q1024 =

METAR EPRA 301000Z 36008KT 9999 SCT028 09/04 Q1022=

METAR EPRZ 301000Z VRB02KT 9999 BKN021 10/05 Q1020 =

METAR EPSC 301000Z 10013KT 080V140 9999 FEW042 10/M01 Q1023 =

METAR EPSY 301000Z 35012KT 9999 SCT040 08/M01 Q1023=

METAR EPWA 301000Z 02007KT 340V060 9999 BKN020 08/02 Q1023 NOSIG=

METAR EPWR 301000Z 02006KT 9999 FEW033 10/03 Q1022 =

METAR EPZG 301000Z 12008KT 080V140 9999 BKN024 07/03 Q1024 =
Awiacja.imgw.pl jest pogodowym serwisem informacyjnym
Instytutu Meteorologii i Gospodarki Wodnej Państwowego Instytutu Badawczego.
Copyright IMGW PIB 2009-2011© Wszelkie prawa zastrzeżone.